sensor_id;sensor_type;location;lat;lon;timestamp;P1;durP1;ratioP1;P2;durP2;ratioP2
2866;SDS011;1441;48.886;8.728;2023-08-30T00:00:05;2.53;;;2.43;;
2866;SDS011;1441;48.886;8.728;2023-08-30T00:02:31;2.77;;;2.30;;
2866;SDS011;1441;48.886;8.728;2023-08-30T00:05:00;3.50;;;2.73;;
2866;SDS011;1441;48.886;8.728;2023-08-30T00:07:26;2.97;;;2.77;;
2866;SDS011;1441;48.886;8.728;2023-08-30T00:09:51;2.97;;;2.80;;
2866;SDS011;1441;48.886;8.728;2023-08-30T00:12:17;14.30;;;3.70;;
2866;SDS011;1441;48.886;8.728;2023-08-30T00:14:42;4.00;;;3.77;;
2866;SDS011;1441;48.886;8.728;2023-08-30T00:17:08;8.70;;;3.60;;
2866;SDS011;1441;48.886;8.728;2023-08-30T00:19:34;4.20;;;3.90;;
2866;SDS011;1441;48.886;8.728;2023-08-30T00:21:59;4.10;;;3.70;;
2866;SDS011;1441;48.886;8.728;2023-08-30T00:24:25;3.90;;;3.60;;
2866;SDS011;1441;48.886;8.728;2023-08-30T00:26:51;3.80;;;3.47;;
2866;SDS011;1441;48.886;8.728;2023-08-30T00:29:16;6.70;;;4.17;;
2866;SDS011;1441;48.886;8.728;2023-08-30T00:31:42;5.97;;;4.00;;
2866;SDS011;1441;48.886;8.728;2023-08-30T00:34:07;3.90;;;3.60;;
2866;SDS011;1441;48.886;8.728;2023-08-30T00:36:33;4.53;;;3.20;;
2866;SDS011;1441;48.886;8.728;2023-08-30T00:38:58;3.63;;;3.43;;
2866;SDS011;1441;48.886;8.728;2023-08-30T00:41:24;3.17;;;3.00;;
2866;SDS011;1441;48.886;8.728;2023-08-30T00:43:49;4.77;;;2.87;;
2866;SDS011;1441;48.886;8.728;2023-08-30T00:46:15;9.40;;;4.10;;
2866;SDS011;1441;48.886;8.728;2023-08-30T00:48:41;3.10;;;2.90;;
2866;SDS011;1441;48.886;8.728;2023-08-30T00:51:07;3.30;;;2.93;;
2866;SDS011;1441;48.886;8.728;2023-08-30T00:53:32;3.00;;;2.80;;
2866;SDS011;1441;48.886;8.728;2023-08-30T00:55:58;2.57;;;2.37;;
2866;SDS011;1441;48.886;8.728;2023-08-30T00:58:24;14.73;;;3.07;;
2866;SDS011;1441;48.886;8.728;2023-08-30T01:00:51;2.77;;;2.60;;
2866;SDS011;1441;48.886;8.728;2023-08-30T01:03:18;2.73;;;2.63;;
2866;SDS011;1441;48.886;8.728;2023-08-30T01:05:45;4.43;;;2.63;;
2866;SDS011;1441;48.886;8.728;2023-08-30T01:08:10;3.17;;;2.97;;
2866;SDS011;1441;48.886;8.728;2023-08-30T01:10:43;6.00;;;3.03;;
2866;SDS011;1441;48.886;8.728;2023-08-30T01:13:20;3.17;;;2.97;;
2866;SDS011;1441;48.886;8.728;2023-08-30T01:15:47;3.30;;;3.10;;
2866;SDS011;1441;48.886;8.728;2023-08-30T01:18:14;2.17;;;2.07;;
2866;SDS011;1441;48.886;8.728;2023-08-30T01:20:45;3.53;;;2.43;;
2866;SDS011;1441;48.886;8.728;2023-08-30T01:28:45;2.70;;;2.50;;
2866;SDS011;1441;48.886;8.728;2023-08-30T01:31:13;3.23;;;2.40;;
2866;SDS011;1441;48.886;8.728;2023-08-30T01:33:40;3.53;;;3.00;;
2866;SDS011;1441;48.886;8.728;2023-08-30T01:36:06;3.27;;;3.00;;
2866;SDS011;1441;48.886;8.728;2023-08-30T01:38:32;2.90;;;2.80;;
2866;SDS011;1441;48.886;8.728;2023-08-30T01:40:58;2.33;;;2.13;;
2866;SDS011;1441;48.886;8.728;2023-08-30T01:43:26;2.27;;;2.07;;
2866;SDS011;1441;48.886;8.728;2023-08-30T01:45:53;5.17;;;2.57;;
2866;SDS011;1441;48.886;8.728;2023-08-30T01:48:21;4.60;;;2.37;;
2866;SDS011;1441;48.886;8.728;2023-08-30T01:50:48;3.40;;;2.60;;
2866;SDS011;1441;48.886;8.728;2023-08-30T01:53:14;2.67;;;2.47;;
2866;SDS011;1441;48.886;8.728;2023-08-30T01:55:41;6.30;;;2.90;;
2866;SDS011;1441;48.886;8.728;2023-08-30T01:58:07;3.77;;;3.23;;
2866;SDS011;1441;48.886;8.728;2023-08-30T02:00:34;3.07;;;2.80;;
2866;SDS011;1441;48.886;8.728;2023-08-30T02:03:06;3.27;;;2.80;;
2866;SDS011;1441;48.886;8.728;2023-08-30T02:05:33;5.90;;;3.00;;
2866;SDS011;1441;48.886;8.728;2023-08-30T02:08:05;3.47;;;3.07;;
2866;SDS011;1441;48.886;8.728;2023-08-30T02:10:40;3.37;;;3.10;;
2866;SDS011;1441;48.886;8.728;2023-08-30T02:13:09;3.80;;;3.50;;
2866;SDS011;1441;48.886;8.728;2023-08-30T02:15:36;3.53;;;2.70;;
2866;SDS011;1441;48.886;8.728;2023-08-30T02:18:05;2.83;;;2.50;;
2866;SDS011;1441;48.886;8.728;2023-08-30T02:20:31;6.03;;;3.40;;
2866;SDS011;1441;48.886;8.728;2023-08-30T02:22:58;3.63;;;3.43;;
2866;SDS011;1441;48.886;8.728;2023-08-30T02:25:24;6.40;;;3.43;;
2866;SDS011;1441;48.886;8.728;2023-08-30T02:27:50;3.90;;;2.93;;
2866;SDS011;1441;48.886;8.728;2023-08-30T02:30:15;3.80;;;2.77;;
2866;SDS011;1441;48.886;8.728;2023-08-30T02:32:41;3.17;;;2.87;;
2866;SDS011;1441;48.886;8.728;2023-08-30T02:35:06;3.20;;;3.00;;
2866;SDS011;1441;48.886;8.728;2023-08-30T02:37:32;3.83;;;3.50;;
2866;SDS011;1441;48.886;8.728;2023-08-30T02:39:58;3.13;;;2.93;;
2866;SDS011;1441;48.886;8.728;2023-08-30T02:42:23;3.27;;;2.97;;
2866;SDS011;1441;48.886;8.728;2023-08-30T02:44:51;3.20;;;2.57;;
2866;SDS011;1441;48.886;8.728;2023-08-30T02:47:16;3.43;;;3.10;;
2866;SDS011;1441;48.886;8.728;2023-08-30T02:49:42;4.07;;;3.10;;
2866;SDS011;1441;48.886;8.728;2023-08-30T02:52:07;5.67;;;2.80;;
2866;SDS011;1441;48.886;8.728;2023-08-30T02:54:33;3.17;;;3.03;;
2866;SDS011;1441;48.886;8.728;2023-08-30T02:56:58;2.60;;;2.50;;
2866;SDS011;1441;48.886;8.728;2023-08-30T02:59:24;3.30;;;2.97;;
2866;SDS011;1441;48.886;8.728;2023-08-30T03:01:50;3.60;;;2.67;;
2866;SDS011;1441;48.886;8.728;2023-08-30T03:04:15;4.40;;;2.70;;
2866;SDS011;1441;48.886;8.728;2023-08-30T03:06:41;5.07;;;3.30;;
2866;SDS011;1441;48.886;8.728;2023-08-30T03:09:06;3.30;;;2.77;;
2866;SDS011;1441;48.886;8.728;2023-08-30T03:11:32;4.47;;;3.10;;
2866;SDS011;1441;48.886;8.728;2023-08-30T03:13:58;4.13;;;3.40;;
2866;SDS011;1441;48.886;8.728;2023-08-30T03:16:24;3.23;;;3.03;;
2866;SDS011;1441;48.886;8.728;2023-08-30T03:18:49;2.90;;;2.70;;
2866;SDS011;1441;48.886;8.728;2023-08-30T03:21:15;4.03;;;3.63;;
2866;SDS011;1441;48.886;8.728;2023-08-30T03:23:41;4.20;;;3.80;;
2866;SDS011;1441;48.886;8.728;2023-08-30T03:26:13;4.40;;;3.07;;
2866;SDS011;1441;48.886;8.728;2023-08-30T03:28:40;3.40;;;3.30;;
2866;SDS011;1441;48.886;8.728;2023-08-30T03:31:16;3.57;;;3.07;;
2866;SDS011;1441;48.886;8.728;2023-08-30T03:33:42;3.37;;;3.20;;
2866;SDS011;1441;48.886;8.728;2023-08-30T03:36:12;4.07;;;3.83;;
2866;SDS011;1441;48.886;8.728;2023-08-30T03:38:39;3.93;;;3.63;;
2866;SDS011;1441;48.886;8.728;2023-08-30T03:41:04;5.43;;;3.90;;
2866;SDS011;1441;48.886;8.728;2023-08-30T03:43:30;4.20;;;2.93;;
2866;SDS011;1441;48.886;8.728;2023-08-30T03:45:57;3.90;;;3.27;;
2866;SDS011;1441;48.886;8.728;2023-08-30T03:48:23;3.60;;;3.40;;
2866;SDS011;1441;48.886;8.728;2023-08-30T03:50:49;4.07;;;3.67;;
2866;SDS011;1441;48.886;8.728;2023-08-30T03:53:14;5.20;;;3.90;;
2866;SDS011;1441;48.886;8.728;2023-08-30T03:55:40;3.77;;;3.43;;
2866;SDS011;1441;48.886;8.728;2023-08-30T03:58:06;3.90;;;3.60;;
2866;SDS011;1441;48.886;8.728;2023-08-30T04:00:32;3.60;;;3.30;;
2866;SDS011;1441;48.886;8.728;2023-08-30T04:03:01;4.17;;;3.40;;
2866;SDS011;1441;48.886;8.728;2023-08-30T04:05:31;4.80;;;4.00;;
2866;SDS011;1441;48.886;8.728;2023-08-30T04:07:58;3.70;;;3.50;;
2866;SDS011;1441;48.886;8.728;2023-08-30T04:10:24;3.37;;;3.17;;
2866;SDS011;1441;48.886;8.728;2023-08-30T04:12:49;3.67;;;3.47;;
2866;SDS011;1441;48.886;8.728;2023-08-30T04:15:15;3.73;;;3.53;;
2866;SDS011;1441;48.886;8.728;2023-08-30T04:17:40;9.57;;;3.80;;
2866;SDS011;1441;48.886;8.728;2023-08-30T04:20:06;4.10;;;3.90;;
2866;SDS011;1441;48.886;8.728;2023-08-30T04:22:32;3.80;;;3.17;;
2866;SDS011;1441;48.886;8.728;2023-08-30T04:24:59;5.47;;;4.10;;
2866;SDS011;1441;48.886;8.728;2023-08-30T04:27:25;3.87;;;3.33;;
2866;SDS011;1441;48.886;8.728;2023-08-30T04:29:52;4.10;;;3.30;;
2866;SDS011;1441;48.886;8.728;2023-08-30T04:32:17;5.10;;;3.87;;
2866;SDS011;1441;48.886;8.728;2023-08-30T04:34:43;6.60;;;3.90;;
2866;SDS011;1441;48.886;8.728;2023-08-30T04:37:08;3.90;;;3.60;;
2866;SDS011;1441;48.886;8.728;2023-08-30T04:39:34;7.20;;;3.20;;
2866;SDS011;1441;48.886;8.728;2023-08-30T04:42:00;3.43;;;3.33;;
2866;SDS011;1441;48.886;8.728;2023-08-30T04:44:27;3.97;;;3.67;;
2866;SDS011;1441;48.886;8.728;2023-08-30T04:46:53;5.10;;;3.77;;
2866;SDS011;1441;48.886;8.728;2023-08-30T04:49:19;3.73;;;3.43;;
2866;SDS011;1441;48.886;8.728;2023-08-30T04:51:45;4.00;;;3.77;;
2866;SDS011;1441;48.886;8.728;2023-08-30T04:54:11;5.83;;;4.07;;
2866;SDS011;1441;48.886;8.728;2023-08-30T04:56:38;3.77;;;3.53;;
2866;SDS011;1441;48.886;8.728;2023-08-30T04:59:03;3.53;;;3.23;;
2866;SDS011;1441;48.886;8.728;2023-08-30T05:01:32;5.30;;;4.10;;
2866;SDS011;1441;48.886;8.728;2023-08-30T05:03:57;4.70;;;4.00;;
2866;SDS011;1441;48.886;8.728;2023-08-30T05:06:23;3.90;;;3.60;;
2866;SDS011;1441;48.886;8.728;2023-08-30T05:08:48;4.13;;;3.80;;
2866;SDS011;1441;48.886;8.728;2023-08-30T05:11:14;5.27;;;4.83;;
2866;SDS011;1441;48.886;8.728;2023-08-30T05:13:40;5.03;;;4.53;;
2866;SDS011;1441;48.886;8.728;2023-08-30T05:16:06;5.30;;;4.90;;
2866;SDS011;1441;48.886;8.728;2023-08-30T05:18:32;5.10;;;4.60;;
2866;SDS011;1441;48.886;8.728;2023-08-30T05:20:57;7.07;;;5.03;;
2866;SDS011;1441;48.886;8.728;2023-08-30T05:23:23;4.87;;;4.50;;
2866;SDS011;1441;48.886;8.728;2023-08-30T05:25:49;4.03;;;3.77;;
2866;SDS011;1441;48.886;8.728;2023-08-30T05:28:14;4.30;;;4.00;;
2866;SDS011;1441;48.886;8.728;2023-08-30T05:30:41;4.40;;;3.80;;
2866;SDS011;1441;48.886;8.728;2023-08-30T05:33:07;4.70;;;4.13;;
2866;SDS011;1441;48.886;8.728;2023-08-30T05:35:33;5.67;;;4.23;;
2866;SDS011;1441;48.886;8.728;2023-08-30T05:37:59;3.80;;;3.60;;
2866;SDS011;1441;48.886;8.728;2023-08-30T05:40:24;4.03;;;3.73;;
2866;SDS011;1441;48.886;8.728;2023-08-30T05:42:50;3.93;;;3.63;;
2866;SDS011;1441;48.886;8.728;2023-08-30T05:45:15;6.77;;;3.93;;
2866;SDS011;1441;48.886;8.728;2023-08-30T05:47:41;3.83;;;3.60;;
2866;SDS011;1441;48.886;8.728;2023-08-30T05:50:06;6.73;;;4.17;;
2866;SDS011;1441;48.886;8.728;2023-08-30T05:52:32;6.87;;;4.37;;
2866;SDS011;1441;48.886;8.728;2023-08-30T05:54:58;4.63;;;3.90;;
2866;SDS011;1441;48.886;8.728;2023-08-30T05:57:24;4.87;;;4.10;;
2866;SDS011;1441;48.886;8.728;2023-08-30T05:59:50;5.13;;;4.73;;
2866;SDS011;1441;48.886;8.728;2023-08-30T06:02:16;7.97;;;4.63;;
2866;SDS011;1441;48.886;8.728;2023-08-30T06:04:42;4.17;;;3.87;;
2866;SDS011;1441;48.886;8.728;2023-08-30T06:07:07;4.60;;;4.20;;
2866;SDS011;1441;48.886;8.728;2023-08-30T06:09:33;4.60;;;4.20;;
2866;SDS011;1441;48.886;8.728;2023-08-30T06:11:59;4.10;;;3.80;;
2866;SDS011;1441;48.886;8.728;2023-08-30T06:14:24;3.63;;;3.33;;
2866;SDS011;1441;48.886;8.728;2023-08-30T06:16:50;4.77;;;4.37;;
2866;SDS011;1441;48.886;8.728;2023-08-30T06:19:15;5.87;;;3.67;;
2866;SDS011;1441;48.886;8.728;2023-08-30T06:21:41;7.57;;;4.00;;
2866;SDS011;1441;48.886;8.728;2023-08-30T06:24:06;3.80;;;3.43;;
2866;SDS011;1441;48.886;8.728;2023-08-30T06:26:32;2.97;;;2.77;;
2866;SDS011;1441;48.886;8.728;2023-08-30T06:28:57;3.23;;;3.03;;
2866;SDS011;1441;48.886;8.728;2023-08-30T06:31:23;3.63;;;3.20;;
2866;SDS011;1441;48.886;8.728;2023-08-30T06:33:49;2.90;;;2.80;;
2866;SDS011;1441;48.886;8.728;2023-08-30T06:36:15;3.10;;;3.00;;
2866;SDS011;1441;48.886;8.728;2023-08-30T06:38:42;6.43;;;4.03;;
2866;SDS011;1441;48.886;8.728;2023-08-30T06:41:08;7.00;;;4.20;;
2866;SDS011;1441;48.886;8.728;2023-08-30T06:43:33;4.50;;;4.10;;
2866;SDS011;1441;48.886;8.728;2023-08-30T06:45:59;4.70;;;4.40;;
2866;SDS011;1441;48.886;8.728;2023-08-30T06:48:25;4.20;;;3.93;;
2866;SDS011;1441;48.886;8.728;2023-08-30T06:50:51;4.50;;;4.10;;
2866;SDS011;1441;48.886;8.728;2023-08-30T06:53:17;3.77;;;3.57;;
2866;SDS011;1441;48.886;8.728;2023-08-30T06:55:43;8.10;;;4.00;;
2866;SDS011;1441;48.886;8.728;2023-08-30T06:58:08;4.00;;;3.77;;
2866;SDS011;1441;48.886;8.728;2023-08-30T07:00:34;6.30;;;3.93;;
2866;SDS011;1441;48.886;8.728;2023-08-30T07:02:59;4.30;;;4.00;;
2866;SDS011;1441;48.886;8.728;2023-08-30T07:05:25;7.53;;;3.37;;
2866;SDS011;1441;48.886;8.728;2023-08-30T07:07:50;5.27;;;3.80;;
2866;SDS011;1441;48.886;8.728;2023-08-30T07:10:16;3.30;;;3.07;;
2866;SDS011;1441;48.886;8.728;2023-08-30T07:12:42;4.43;;;2.50;;
2866;SDS011;1441;48.886;8.728;2023-08-30T07:15:08;2.93;;;2.63;;
2866;SDS011;1441;48.886;8.728;2023-08-30T07:17:33;3.53;;;2.70;;
2866;SDS011;1441;48.886;8.728;2023-08-30T07:19:59;3.50;;;3.20;;
2866;SDS011;1441;48.886;8.728;2023-08-30T07:22:25;4.77;;;3.60;;
2866;SDS011;1441;48.886;8.728;2023-08-30T07:24:53;5.40;;;2.57;;
2866;SDS011;1441;48.886;8.728;2023-08-30T07:27:18;2.40;;;2.30;;
2866;SDS011;1441;48.886;8.728;2023-08-30T07:29:44;2.77;;;2.67;;
2866;SDS011;1441;48.886;8.728;2023-08-30T07:32:10;2.23;;;2.13;;
2866;SDS011;1441;48.886;8.728;2023-08-30T07:34:35;4.37;;;3.10;;
2866;SDS011;1441;48.886;8.728;2023-08-30T07:37:01;4.20;;;3.63;;
2866;SDS011;1441;48.886;8.728;2023-08-30T07:39:27;7.20;;;3.47;;
2866;SDS011;1441;48.886;8.728;2023-08-30T07:41:52;3.90;;;3.60;;
2866;SDS011;1441;48.886;8.728;2023-08-30T07:44:18;4.90;;;3.50;;
2866;SDS011;1441;48.886;8.728;2023-08-30T07:46:45;3.97;;;3.43;;
2866;SDS011;1441;48.886;8.728;2023-08-30T07:49:10;3.40;;;3.10;;
2866;SDS011;1441;48.886;8.728;2023-08-30T07:51:36;4.27;;;3.03;;
2866;SDS011;1441;48.886;8.728;2023-08-30T07:54:01;3.10;;;2.73;;
2866;SDS011;1441;48.886;8.728;2023-08-30T07:56:27;2.70;;;2.50;;
2866;SDS011;1441;48.886;8.728;2023-08-30T07:58:54;5.13;;;2.40;;
2866;SDS011;1441;48.886;8.728;2023-08-30T08:01:19;4.50;;;2.70;;
2866;SDS011;1441;48.886;8.728;2023-08-30T08:03:45;2.60;;;2.03;;
2866;SDS011;1441;48.886;8.728;2023-08-30T08:06:11;3.97;;;1.80;;
2866;SDS011;1441;48.886;8.728;2023-08-30T08:08:36;4.70;;;2.17;;
2866;SDS011;1441;48.886;8.728;2023-08-30T08:11:02;3.93;;;1.53;;
2866;SDS011;1441;48.886;8.728;2023-08-30T08:13:28;3.77;;;1.60;;
2866;SDS011;1441;48.886;8.728;2023-08-30T08:15:55;3.40;;;1.80;;
2866;SDS011;1441;48.886;8.728;2023-08-30T08:18:22;3.83;;;1.57;;
2866;SDS011;1441;48.886;8.728;2023-08-30T08:20:48;3.83;;;1.47;;
2866;SDS011;1441;48.886;8.728;2023-08-30T08:23:13;2.07;;;1.57;;
2866;SDS011;1441;48.886;8.728;2023-08-30T08:25:39;1.83;;;1.73;;
2866;SDS011;1441;48.886;8.728;2023-08-30T08:28:05;2.50;;;1.47;;
2866;SDS011;1441;48.886;8.728;2023-08-30T08:30:30;1.60;;;1.50;;
2866;SDS011;1441;48.886;8.728;2023-08-30T08:32:57;2.80;;;1.70;;
2866;SDS011;1441;48.886;8.728;2023-08-30T08:35:22;1.77;;;1.50;;
2866;SDS011;1441;48.886;8.728;2023-08-30T08:37:48;2.40;;;1.63;;
2866;SDS011;1441;48.886;8.728;2023-08-30T08:40:14;1.73;;;1.43;;
2866;SDS011;1441;48.886;8.728;2023-08-30T08:42:39;2.63;;;1.50;;
2866;SDS011;1441;48.886;8.728;2023-08-30T08:45:06;1.47;;;1.17;;
2866;SDS011;1441;48.886;8.728;2023-08-30T08:47:34;1.67;;;1.57;;
2866;SDS011;1441;48.886;8.728;2023-08-30T08:50:00;1.30;;;1.30;;
2866;SDS011;1441;48.886;8.728;2023-08-30T08:52:28;1.83;;;1.37;;
2866;SDS011;1441;48.886;8.728;2023-08-30T08:54:54;2.60;;;1.90;;
2866;SDS011;1441;48.886;8.728;2023-08-30T08:57:20;1.50;;;1.50;;
2866;SDS011;1441;48.886;8.728;2023-08-30T08:59:46;2.10;;;1.50;;
2866;SDS011;1441;48.886;8.728;2023-08-30T09:02:13;1.90;;;1.20;;
2866;SDS011;1441;48.886;8.728;2023-08-30T09:04:39;1.80;;;1.53;;
2866;SDS011;1441;48.886;8.728;2023-08-30T09:07:05;4.53;;;1.67;;
2866;SDS011;1441;48.886;8.728;2023-08-30T09:09:31;1.43;;;1.33;;
2866;SDS011;1441;48.886;8.728;2023-08-30T09:11:58;1.70;;;1.60;;
2866;SDS011;1441;48.886;8.728;2023-08-30T09:14:24;1.47;;;1.47;;
2866;SDS011;1441;48.886;8.728;2023-08-30T09:17:01;1.00;;;1.00;;
2866;SDS011;1441;48.886;8.728;2023-08-30T09:19:28;1.87;;;1.10;;
2866;SDS011;1441;48.886;8.728;2023-08-30T09:21:54;2.00;;;1.50;;
2866;SDS011;1441;48.886;8.728;2023-08-30T09:24:21;1.63;;;1.33;;
2866;SDS011;1441;48.886;8.728;2023-08-30T09:26:47;3.40;;;1.50;;
2866;SDS011;1441;48.886;8.728;2023-08-30T09:29:15;1.60;;;1.50;;
2866;SDS011;1441;48.886;8.728;2023-08-30T09:31:42;1.83;;;1.73;;
2866;SDS011;1441;48.886;8.728;2023-08-30T09:34:08;1.80;;;1.70;;
2866;SDS011;1441;48.886;8.728;2023-08-30T09:36:34;2.20;;;1.97;;
2866;SDS011;1441;48.886;8.728;2023-08-30T09:39:02;3.93;;;2.30;;
2866;SDS011;1441;48.886;8.728;2023-08-30T09:41:36;5.63;;;2.57;;
2866;SDS011;1441;48.886;8.728;2023-08-30T09:46:55;3.67;;;2.47;;
2866;SDS011;1441;48.886;8.728;2023-08-30T09:49:22;1.67;;;1.60;;
2866;SDS011;1441;48.886;8.728;2023-08-30T09:51:50;1.73;;;1.63;;
2866;SDS011;1441;48.886;8.728;2023-08-30T09:54:23;2.30;;;1.60;;
2866;SDS011;1441;48.886;8.728;2023-08-30T09:56:50;2.73;;;1.40;;
2866;SDS011;1441;48.886;8.728;2023-08-30T09:59:20;1.97;;;1.83;;
2866;SDS011;1441;48.886;8.728;2023-08-30T10:01:47;1.57;;;1.57;;
2866;SDS011;1441;48.886;8.728;2023-08-30T10:04:13;1.90;;;1.80;;
2866;SDS011;1441;48.886;8.728;2023-08-30T10:06:40;1.57;;;1.30;;
2866;SDS011;1441;48.886;8.728;2023-08-30T10:09:06;3.43;;;1.70;;
2866;SDS011;1441;48.886;8.728;2023-08-30T10:11:36;1.93;;;1.83;;
2866;SDS011;1441;48.886;8.728;2023-08-30T10:14:03;2.30;;;1.50;;
2866;SDS011;1441;48.886;8.728;2023-08-30T10:16:30;2.37;;;1.83;;
2866;SDS011;1441;48.886;8.728;2023-08-30T10:19:24;2.10;;;1.77;;
2866;SDS011;1441;48.886;8.728;2023-08-30T10:22:03;1.63;;;1.30;;
2866;SDS011;1441;48.886;8.728;2023-08-30T10:24:41;5.20;;;1.67;;
2866;SDS011;1441;48.886;8.728;2023-08-30T10:27:12;1.37;;;1.27;;
2866;SDS011;1441;48.886;8.728;2023-08-30T10:29:40;1.80;;;1.70;;
2866;SDS011;1441;48.886;8.728;2023-08-30T10:32:08;1.83;;;1.73;;
2866;SDS011;1441;48.886;8.728;2023-08-30T10:34:34;4.40;;;1.60;;
2866;SDS011;1441;48.886;8.728;2023-08-30T10:37:01;1.73;;;1.60;;
2866;SDS011;1441;48.886;8.728;2023-08-30T10:39:41;6.07;;;1.13;;
2866;SDS011;1441;48.886;8.728;2023-08-30T10:42:11;1.47;;;1.37;;
2866;SDS011;1441;48.886;8.728;2023-08-30T10:44:50;2.53;;;1.77;;
2866;SDS011;1441;48.886;8.728;2023-08-30T10:49:47;3.77;;;1.37;;
2866;SDS011;1441;48.886;8.728;2023-08-30T10:52:14;3.03;;;1.30;;
2866;SDS011;1441;48.886;8.728;2023-08-30T10:54:40;2.67;;;1.60;;
2866;SDS011;1441;48.886;8.728;2023-08-30T10:57:11;2.20;;;1.60;;
2866;SDS011;1441;48.886;8.728;2023-08-30T11:02:33;2.17;;;2.07;;
2866;SDS011;1441;48.886;8.728;2023-08-30T11:04:59;2.47;;;1.57;;
2866;SDS011;1441;48.886;8.728;2023-08-30T11:07:25;3.17;;;1.40;;
2866;SDS011;1441;48.886;8.728;2023-08-30T11:09:51;6.33;;;1.63;;
2866;SDS011;1441;48.886;8.728;2023-08-30T11:12:17;1.53;;;1.37;;
2866;SDS011;1441;48.886;8.728;2023-08-30T11:14:44;1.77;;;1.60;;
2866;SDS011;1441;48.886;8.728;2023-08-30T11:17:09;2.13;;;1.33;;
2866;SDS011;1441;48.886;8.728;2023-08-30T11:19:35;1.80;;;1.37;;
2866;SDS011;1441;48.886;8.728;2023-08-30T11:22:01;2.80;;;1.40;;
2866;SDS011;1441;48.886;8.728;2023-08-30T11:24:27;1.50;;;1.40;;
2866;SDS011;1441;48.886;8.728;2023-08-30T11:26:54;1.53;;;1.43;;
2866;SDS011;1441;48.886;8.728;2023-08-30T11:29:20;2.30;;;1.10;;
2866;SDS011;1441;48.886;8.728;2023-08-30T11:31:45;1.03;;;1.00;;
2866;SDS011;1441;48.886;8.728;2023-08-30T11:34:12;1.63;;;1.27;;
2866;SDS011;1441;48.886;8.728;2023-08-30T11:36:37;1.77;;;1.30;;
2866;SDS011;1441;48.886;8.728;2023-08-30T11:39:04;1.13;;;1.00;;
2866;SDS011;1441;48.886;8.728;2023-08-30T11:41:30;2.13;;;1.13;;
2866;SDS011;1441;48.886;8.728;2023-08-30T11:43:56;1.40;;;1.30;;
2866;SDS011;1441;48.886;8.728;2023-08-30T11:46:23;4.83;;;1.10;;
2866;SDS011;1441;48.886;8.728;2023-08-30T11:48:49;1.30;;;1.20;;
2866;SDS011;1441;48.886;8.728;2023-08-30T11:51:16;0.90;;;0.90;;
2866;SDS011;1441;48.886;8.728;2023-08-30T11:53:43;2.40;;;1.37;;
2866;SDS011;1441;48.886;8.728;2023-08-30T11:56:10;1.07;;;1.07;;
2866;SDS011;1441;48.886;8.728;2023-08-30T11:58:36;4.00;;;1.30;;
2866;SDS011;1441;48.886;8.728;2023-08-30T12:01:02;3.73;;;1.27;;
2866;SDS011;1441;48.886;8.728;2023-08-30T12:03:29;4.57;;;1.33;;
2866;SDS011;1441;48.886;8.728;2023-08-30T12:05:56;2.30;;;1.20;;
2866;SDS011;1441;48.886;8.728;2023-08-30T12:08:26;1.00;;;1.00;;
2866;SDS011;1441;48.886;8.728;2023-08-30T12:10:54;5.00;;;1.40;;
2866;SDS011;1441;48.886;8.728;2023-08-30T12:13:31;1.00;;;1.00;;
2866;SDS011;1441;48.886;8.728;2023-08-30T12:15:59;2.30;;;1.00;;
2866;SDS011;1441;48.886;8.728;2023-08-30T12:18:25;6.13;;;1.17;;
2866;SDS011;1441;48.886;8.728;2023-08-30T12:20:53;0.90;;;0.90;;
2866;SDS011;1441;48.886;8.728;2023-08-30T12:23:22;3.60;;;1.00;;
2866;SDS011;1441;48.886;8.728;2023-08-30T12:26:04;2.80;;;1.23;;
2866;SDS011;1441;48.886;8.728;2023-08-30T12:28:37;0.90;;;0.90;;
2866;SDS011;1441;48.886;8.728;2023-08-30T12:31:09;1.07;;;1.07;;
2866;SDS011;1441;48.886;8.728;2023-08-30T12:33:35;8.23;;;1.40;;
2866;SDS011;1441;48.886;8.728;2023-08-30T12:36:02;3.30;;;1.30;;
2866;SDS011;1441;48.886;8.728;2023-08-30T12:38:28;3.40;;;1.47;;
2866;SDS011;1441;48.886;8.728;2023-08-30T12:40:54;1.00;;;1.00;;
2866;SDS011;1441;48.886;8.728;2023-08-30T12:43:21;2.10;;;1.40;;
2866;SDS011;1441;48.886;8.728;2023-08-30T12:45:48;3.30;;;0.97;;
2866;SDS011;1441;48.886;8.728;2023-08-30T12:48:15;1.40;;;0.90;;
2866;SDS011;1441;48.886;8.728;2023-08-30T12:50:42;1.13;;;1.13;;
2866;SDS011;1441;48.886;8.728;2023-08-30T12:53:09;1.67;;;1.57;;
2866;SDS011;1441;48.886;8.728;2023-08-30T12:55:35;2.30;;;1.20;;
2866;SDS011;1441;48.886;8.728;2023-08-30T12:58:01;3.30;;;1.60;;
2866;SDS011;1441;48.886;8.728;2023-08-30T13:00:27;1.33;;;1.23;;
2866;SDS011;1441;48.886;8.728;2023-08-30T13:02:53;2.03;;;1.17;;
2866;SDS011;1441;48.886;8.728;2023-08-30T13:05:18;1.97;;;1.20;;
2866;SDS011;1441;48.886;8.728;2023-08-30T13:07:44;1.30;;;1.20;;
2866;SDS011;1441;48.886;8.728;2023-08-30T13:10:10;1.33;;;0.97;;
2866;SDS011;1441;48.886;8.728;2023-08-30T13:12:36;1.10;;;1.00;;
2866;SDS011;1441;48.886;8.728;2023-08-30T13:15:02;1.50;;;1.40;;
2866;SDS011;1441;48.886;8.728;2023-08-30T13:17:29;3.73;;;0.90;;
2866;SDS011;1441;48.886;8.728;2023-08-30T13:19:54;1.30;;;1.20;;
2866;SDS011;1441;48.886;8.728;2023-08-30T13:22:21;0.90;;;0.90;;
2866;SDS011;1441;48.886;8.728;2023-08-30T13:24:47;2.70;;;1.10;;
2866;SDS011;1441;48.886;8.728;2023-08-30T13:27:13;2.20;;;1.27;;
2866;SDS011;1441;48.886;8.728;2023-08-30T13:29:38;6.33;;;1.60;;
2866;SDS011;1441;48.886;8.728;2023-08-30T13:32:04;1.70;;;1.60;;
2866;SDS011;1441;48.886;8.728;2023-08-30T13:34:30;4.50;;;1.27;;
2866;SDS011;1441;48.886;8.728;2023-08-30T13:36:55;1.63;;;1.53;;
2866;SDS011;1441;48.886;8.728;2023-08-30T13:39:21;1.67;;;1.40;;
2866;SDS011;1441;48.886;8.728;2023-08-30T13:41:47;1.10;;;1.10;;
2866;SDS011;1441;48.886;8.728;2023-08-30T13:44:13;1.63;;;1.57;;
2866;SDS011;1441;48.886;8.728;2023-08-30T13:46:39;1.40;;;1.30;;
2866;SDS011;1441;48.886;8.728;2023-08-30T13:49:04;1.30;;;1.20;;
2866;SDS011;1441;48.886;8.728;2023-08-30T13:51:30;2.07;;;1.33;;
2866;SDS011;1441;48.886;8.728;2023-08-30T13:53:56;1.40;;;1.40;;
2866;SDS011;1441;48.886;8.728;2023-08-30T13:56:21;1.50;;;1.40;;
2866;SDS011;1441;48.886;8.728;2023-08-30T13:58:47;2.13;;;1.47;;
2866;SDS011;1441;48.886;8.728;2023-08-30T14:01:13;2.50;;;1.43;;
2866;SDS011;1441;48.886;8.728;2023-08-30T14:03:39;1.57;;;1.40;;
2866;SDS011;1441;48.886;8.728;2023-08-30T14:06:05;1.63;;;1.50;;
2866;SDS011;1441;48.886;8.728;2023-08-30T14:08:30;5.67;;;1.70;;
2866;SDS011;1441;48.886;8.728;2023-08-30T14:10:57;2.23;;;1.23;;
2866;SDS011;1441;48.886;8.728;2023-08-30T14:13:23;1.53;;;1.30;;
2866;SDS011;1441;48.886;8.728;2023-08-30T14:15:48;1.73;;;1.30;;
2866;SDS011;1441;48.886;8.728;2023-08-30T14:18:14;3.00;;;1.50;;
2866;SDS011;1441;48.886;8.728;2023-08-30T14:20:41;2.20;;;1.33;;
2866;SDS011;1441;48.886;8.728;2023-08-30T14:23:07;1.03;;;0.97;;
2866;SDS011;1441;48.886;8.728;2023-08-30T14:25:33;1.50;;;1.40;;
2866;SDS011;1441;48.886;8.728;2023-08-30T14:27:59;2.83;;;1.27;;
2866;SDS011;1441;48.886;8.728;2023-08-30T14:30:26;1.60;;;1.50;;
2866;SDS011;1441;48.886;8.728;2023-08-30T14:32:51;4.13;;;1.83;;
2866;SDS011;1441;48.886;8.728;2023-08-30T14:35:18;4.80;;;1.47;;
2866;SDS011;1441;48.886;8.728;2023-08-30T14:37:45;3.10;;;1.17;;
2866;SDS011;1441;48.886;8.728;2023-08-30T14:40:12;2.70;;;1.20;;
2866;SDS011;1441;48.886;8.728;2023-08-30T14:42:38;1.33;;;1.23;;
2866;SDS011;1441;48.886;8.728;2023-08-30T14:45:04;1.37;;;1.27;;
2866;SDS011;1441;48.886;8.728;2023-08-30T14:47:32;2.10;;;1.53;;
2866;SDS011;1441;48.886;8.728;2023-08-30T14:49:58;1.87;;;1.10;;
2866;SDS011;1441;48.886;8.728;2023-08-30T14:52:26;1.30;;;1.20;;
2866;SDS011;1441;48.886;8.728;2023-08-30T14:54:52;1.57;;;1.20;;
2866;SDS011;1441;48.886;8.728;2023-08-30T14:57:17;2.40;;;1.23;;
2866;SDS011;1441;48.886;8.728;2023-08-30T14:59:43;1.20;;;1.10;;
2866;SDS011;1441;48.886;8.728;2023-08-30T15:02:08;1.37;;;1.10;;
2866;SDS011;1441;48.886;8.728;2023-08-30T15:04:34;2.30;;;1.30;;
2866;SDS011;1441;48.886;8.728;2023-08-30T15:06:59;1.53;;;1.43;;
2866;SDS011;1441;48.886;8.728;2023-08-30T15:09:25;3.17;;;1.60;;
2866;SDS011;1441;48.886;8.728;2023-08-30T15:11:50;8.33;;;1.47;;
2866;SDS011;1441;48.886;8.728;2023-08-30T15:14:16;1.83;;;1.30;;
2866;SDS011;1441;48.886;8.728;2023-08-30T15:16:41;4.53;;;1.20;;
2866;SDS011;1441;48.886;8.728;2023-08-30T15:19:07;4.00;;;1.27;;
2866;SDS011;1441;48.886;8.728;2023-08-30T15:21:32;1.87;;;1.30;;
2866;SDS011;1441;48.886;8.728;2023-08-30T15:23:58;9.77;;;1.60;;